Latest Weather Observations for Wynyard

IDT60801

Issued at 10:31 am EST Friday 14 May 2021 (issued every 10 minutes, with the page automatically refreshed every 10 minutes)

About weather observations | Map of weather stations | Latest weather observations for TAS | Other Formats
Station Details ID: 091107 Name: WYNYARD AIRPORT Lat: -41.00 Lon: 145.73 Height: 12.0 m
Data from the previous 72 hours. | See also: Recent months at Wynyard
Date/Time
EST
Temp
°C
App
Temp
°C
Dew
Point
°C
Rel
Hum
%
Delta-T
°C
Wind Press
QNH
hPa
Press
MSL
hPa
Rain since
9am
mm
Dir  Spd
km/h
Gust
km/h
Spd
kts
Gust
kts
14/10:30am 10.7 4.2 6.3 74 2.1 WSW 30 37 16 20 1006.3 1006.3 0.0
14/10:01am 10.4 4.3 6.4 76 1.9 W 28 50 15 27 1005.7 1005.7 0.0
14/10:00am 10.4 4.3 6.7 78 1.7 W 28 39 15 21 1005.7 1005.7 0.0
14/09:30am 9.4 3.9 6.1 80 1.5 WSW 24 37 13 20 1005.6 1005.6 0.0
14/09:00am 8.8 3.4 6.4 85 1.1 W 24 30 13 16 1005.4 1005.4 4.6
14/08:30am 7.6 2.8 5.6 87 0.9 WSW 20 30 11 16 1005.3 1005.3 4.6
14/08:00am 6.7 1.8 5.0 89 0.7 W 20 28 11 15 1004.8 1004.8 4.6
14/07:30am 6.0 0.9 4.3 89 0.7 W 20 26 11 14 1004.4 1004.4 4.6
14/07:00am 6.5 0.8 4.7 88 0.8 W 24 30 13 16 1004.1 1004.1 4.6
14/06:30am 6.1 1.2 4.9 92 0.5 WNW 20 24 11 13 1004.2 1004.2 4.4
14/06:00am 5.3 0.9 4.7 96 0.3 W 17 20 9 11 1004.2 1004.2 4.2
14/05:30am 5.0 0.6 4.9 99 0.0 W 17 22 9 12 1003.8 1003.8 4.2
14/05:00am 4.9 1.3 4.8 99 0.0 WNW 13 15 7 8 1003.9 1003.9 4.2
14/04:30am 3.8 0.7 3.7 99 0.0 W 9 13 5 7 1003.8 1003.8 4.2
14/04:00am 3.5 0.0 3.4 99 0.0 SW 11 13 6 7 1003.8 1003.8 4.2
14/03:32am 4.4 1.4 4.3 99 0.0 W 9 15 5 8 1003.9 1003.9 4.2
14/03:30am 4.6 1.7 4.5 99 0.0 W 9 15 5 8 1003.9 1003.9 4.2
14/03:00am 3.0 0.2 2.9 99 0.0 SSE 7 9 4 5 1004.2 1004.2 3.4
14/02:35am 3.2 1.3 3.1 99 0.0 SW 2 9 1 5 1004.2 1004.2 3.4
14/02:30am 4.3 2.6 4.2 99 0.0 WSW 2 6 1 3 1004.3 1004.3 3.4
14/02:00am 5.0 2.7 4.9 99 0.0 WNW 6 7 3 4 1004.7 1004.7 3.4
14/01:30am 4.9 2.6 4.8 99 0.0 W 6 9 3 5 1005.2 1005.2 3.4
14/01:14am 4.4 3.1 4.3 99 0.0 CALM 0 6 0 3 1005.8 1005.8 3.0
14/01:00am 4.0 1.3 3.9 99 0.0 WSW 7 13 4 7 1005.8 1005.8 3.0
14/12:55am 4.0 1.0 3.9 99 0.0 SW 9 13 5 7 1006.3 1006.3 2.8
14/12:30am 3.1 0.2 2.7 97 0.2 SW 7 9 4 5 1006.2 1006.2 1.4
14/12:00am 3.1 -0.2 2.5 96 0.2 SSW 9 11 5 6 1005.9 1005.9 1.4
 
Date/Time
EST
Temp
°C
App
Temp
°C
Dew
Point
°C
Rel
Hum
%
Delta-T
°C
Wind Press
QNH
hPa
Press
MSL
hPa
Rain since
9am
mm
Dir  Spd
km/h
Gust
km/h
Spd
kts
Gust
kts
13/11:30pm 3.7 0.2 3.3 97 0.2 WSW 11 13 6 7 1006.6 1006.6 1.4
13/11:00pm 2.5 -0.9 1.6 94 0.3 W 9 9 5 5 1007.2 1007.2 1.4
13/10:30pm 5.4 4.1 4.1 91 0.6 CALM 0 0 0 0 1007.2 1007.2 1.4
13/10:00pm 5.6 3.1 3.9 89 0.7 WNW 6 9 3 5 1007.6 1007.6 1.4
13/09:30pm 4.7 2.1 3.0 89 0.7 W 6 7 3 4 1007.5 1007.5 1.4
13/09:00pm 5.2 3.4 3.5 89 0.7 W 2 7 1 4 1007.6 1007.6 1.4
13/08:30pm 5.9 3.2 3.7 86 0.9 W 7 11 4 6 1007.5 1007.5 1.4
13/08:00pm 6.1 2.7 3.9 86 0.9 W 11 15 6 8 1007.5 1007.5 1.4
13/07:30pm 6.5 2.7 3.8 83 1.1 WSW 13 15 7 8 1007.4 1007.4 1.4
13/07:00pm 7.2 3.1 4.5 83 1.2 W 15 19 8 10 1007.1 1007.1 1.4
13/06:30pm 7.1 3.7 4.2 82 1.3 WNW 11 17 6 9 1006.9 1006.9 1.4
13/06:00pm 8.0 4.3 4.6 79 1.5 W 13 17 7 9 1006.7 1006.7 1.4
13/05:30pm 8.6 4.5 4.6 76 1.8 W 15 20 8 11 1006.4 1006.4 1.4
13/05:00pm 10.0 5.0 4.8 70 2.3 WSW 20 30 11 16 1005.9 1005.9 1.4
13/04:30pm 11.0 6.8 5.7 70 2.4 W 17 24 9 13 1005.7 1005.7 1.4
13/04:00pm 11.5 6.0 5.8 68 2.7 W 24 33 13 18 1005.4 1005.4 1.4
13/03:30pm 11.8 4.8 5.9 67 2.8 WSW 32 46 17 25 1004.8 1004.8 1.4
13/03:00pm 11.3 4.9 7.0 75 2.1 WSW 30 44 16 24 1004.8 1004.8 1.4
13/02:30pm 12.2 6.4 8.1 76 2.0 WSW 28 37 15 20 1004.5 1004.5 1.4
13/02:00pm 11.1 5.5 7.2 77 1.9 WSW 26 35 14 19 1004.4 1004.4 1.4
13/01:44pm 11.0 4.7 7.5 79 1.7 SW 30 56 16 30 1004.3 1004.3 1.4
13/01:30pm 11.3 6.6 9.2 87 1.0 WSW 24 32 13 17 1004.5 1004.5 1.4
13/01:00pm 11.4 5.5 9.1 86 1.2 WSW 30 44 16 24 1004.5 1004.5 1.4
13/12:54pm 11.5 4.7 9.4 87 1.1 WSW 35 54 19 29 1004.6 1004.6 1.4
13/12:48pm 11.5 4.6 8.7 83 1.4 WSW 35 54 19 29 1004.5 1004.5 1.4
13/12:33pm 12.1 6.5 10.2 88 1.0 WNW 30 54 16 29 1004.3 1004.3 1.4
13/12:31pm 12.1 7.1 11.0 93 0.6 NW 28 54 15 29 1004.1 1004.1 1.4
13/12:30pm 12.8 8.8 11.9 94 0.5 NW 24 39 13 21 1004.2 1004.2 1.2
13/12:08pm 12.6 6.9 11.3 92 0.7 NW 32 48 17 26 1004.7 1004.7 1.0
13/12:00pm 12.5 8.1 11.6 94 0.5 NW 26 46 14 25 1004.9 1004.9 1.0
13/11:56am 12.6 7.8 11.7 94 0.5 NW 28 46 15 25 1005.0 1005.0 1.0
13/11:30am 12.9 8.3 11.1 89 0.9 NW 26 43 14 23 1005.8 1005.8 0.2
13/11:26am 12.9 7.5 11.0 88 1.0 NW 30 48 16 26 1005.9 1005.9 0.0
13/11:24am 13.0 7.7 11.1 88 1.0 NW 30 48 16 26 1005.9 1005.9 0.0
13/11:19am 13.2 7.4 10.7 85 1.3 NW 32 48 17 26 1005.9 1005.9 0.0
13/11:00am 13.8 8.5 10.0 78 2.0 NW 28 44 15 24 1006.2 1006.2 0.0
13/10:30am 13.7 7.4 9.7 77 2.1 NW 33 46 18 25 1007.0 1007.0 0.0
13/10:00am 13.8 7.6 9.5 75 2.2 NW 32 43 17 23 1007.4 1007.4 0.0
13/09:53am 14.0 8.6 9.4 74 2.4 NW 28 46 15 25 1007.4 1007.4 0.0
13/09:30am 13.9 9.4 9.9 77 2.1 NW 24 33 13 18 1007.8 1007.8 0.0
13/09:00am 13.9 9.3 9.7 76 2.2 NW 24 32 13 17 1008.0 1008.0 1.8
13/08:37am 13.9 8.7 10.1 78 2.0 NW 28 46 15 25 1008.3 1008.4 1.8
13/08:30am 13.8 9.3 10.0 78 2.0 NW 24 32 13 17 1008.4 1008.5 1.8
13/08:00am 13.6 9.6 10.4 81 1.7 NW 22 35 12 19 1008.7 1008.8 1.8
13/07:30am 12.7 11.3 10.9 89 0.9 NW 9 17 5 9 1008.9 1009.0 1.8
13/07:00am 10.5 9.2 10.0 97 0.3 WSW 7 11 4 6 1009.2 1009.3 1.8
13/06:30am 9.8 9.1 8.7 93 0.5 NW 2 6 1 3 1009.6 1009.7 1.8
13/06:00am 10.2 8.2 8.6 90 0.8 W 9 13 5 7 1009.9 1010.0 1.8
13/05:30am 11.7 8.8 9.8 88 1.0 WNW 15 17 8 9 1010.5 1010.6 1.8
13/05:00am 12.3 9.1 10.0 86 1.2 WNW 17 22 9 12 1010.6 1010.7 1.8
13/04:48am 12.7 9.1 10.4 86 1.2 WNW 20 28 11 15 1010.7 1010.8 1.8
13/04:33am 13.4 10.5 11.1 86 1.2 WNW 17 26 9 14 1010.6 1010.7 1.8
13/04:30am 13.3 10.5 11.2 87 1.1 NW 17 20 9 11 1010.6 1010.7 1.8
13/04:00am 13.7 10.3 11.4 86 1.2 NW 20 30 11 16 1011.0 1011.1 1.8
13/03:30am 14.0 10.8 12.0 88 1.1 NW 20 30 11 16 1011.3 1011.4 1.8
13/03:06am 14.4 12.5 13.0 91 0.8 N 15 22 8 12 1011.7 1011.8 1.8
13/03:00am 14.5 12.6 13.0 91 0.8 NNW 15 26 8 14 1012.0 1012.1 1.8
13/02:30am 14.0 13.5 13.8 99 0.1 N 9 13 5 7 1012.5 1012.6 1.8
13/02:00am 13.4 13.6 13.2 99 0.1 NE 4 9 2 5 1013.0 1013.1 1.8
13/01:30am 13.5 12.1 13.3 99 0.1 E 13 19 7 10 1013.6 1013.7 1.8
13/01:01am 13.1 12.9 12.9 99 0.1 NE 6 11 3 6 1014.4 1014.5 1.8
13/01:00am 13.1 12.9 12.9 99 0.1 NE 6 9 3 5 1014.5 1014.6 1.8
13/12:37am 13.0 10.6 12.7 98 0.2 E 17 22 9 12 1014.9 1015.0 1.0
13/12:30am 13.0 10.2 12.5 97 0.3 E 19 28 10 15 1014.9 1015.0 1.0
13/12:00am 13.2 11.2 12.6 96 0.3 E 15 24 8 13 1015.3 1015.4 0.6
 
Date/Time
EST
Temp
°C
App
Temp
°C
Dew
Point
°C
Rel
Hum
%
Delta-T
°C
Wind Press
QNH
hPa
Press
MSL
hPa
Rain since
9am
mm
Dir  Spd
km/h
Gust
km/h
Spd
kts
Gust
kts
12/11:30pm 13.1 10.0 12.2 94 0.5 E 20 28 11 15 1016.0 1016.1 0.6
12/11:00pm 12.9 9.8 12.1 95 0.4 ESE 20 28 11 15 1016.5 1016.6 0.6
12/10:30pm 12.7 9.8 12.2 97 0.3 ESE 19 24 10 13 1017.2 1017.2 0.6
12/10:00pm 12.5 9.0 12.2 98 0.2 E 22 32 12 17 1017.7 1017.7 0.6
12/09:43pm 12.4 8.9 12.2 99 0.1 ESE 22 30 12 16 1017.9 1017.9 0.6
12/09:30pm 12.3 8.4 12.1 99 0.1 ESE 24 32 13 17 1018.2 1018.2 0.6
12/09:01pm 12.4 8.4 11.9 97 0.3 E 24 32 13 17 1018.6 1018.6 0.4
12/09:00pm 12.4 8.4 11.9 97 0.3 E 24 32 13 17 1018.6 1018.6 0.4
12/08:57pm 12.4 8.4 11.9 97 0.3 E 24 30 13 16 1018.7 1018.7 0.4
12/08:31pm 12.4 8.8 11.8 96 0.3 ESE 22 28 12 15 1019.3 1019.3 0.0
12/08:30pm 12.4 8.8 11.8 96 0.3 ESE 22 28 12 15 1019.3 1019.3 0.0
12/08:00pm 12.4 8.7 11.6 95 0.4 E 22 30 12 16 1019.9 1019.9 0.0
12/07:30pm 13.0 9.0 11.9 93 0.6 E 24 30 13 16 1019.9 1019.9 0.0
12/07:00pm 13.3 9.7 12.0 92 0.7 E 22 30 12 16 1020.4 1020.4 0.0
12/06:30pm 13.2 9.2 11.8 91 0.7 E 24 32 13 17 1020.5 1020.5 0.0
12/06:21pm 13.3 8.9 11.7 90 0.9 ENE 26 35 14 19 1020.6 1020.6 0.0
12/06:00pm 13.6 9.5 11.3 86 1.2 ENE 24 33 13 18 1020.6 1020.6 0.0
12/05:30pm 13.2 9.2 10.6 84 1.4 E 22 28 12 15 1020.7 1020.7 0.0
12/05:00pm 13.7 9.6 10.1 79 1.9 E 22 32 12 17 1021.0 1021.0 0.0
12/04:30pm 13.6 9.0 9.6 77 2.0 E 24 33 13 18 1021.5 1021.5 0.0
12/04:00pm 13.7 9.4 9.4 75 2.2 E 22 32 12 17 1022.1 1022.1 0.0
12/03:30pm 13.8 9.0 9.0 73 2.4 E 24 33 13 18 1022.5 1022.5 0.0
12/03:00pm 13.6 9.4 8.2 70 2.7 E 20 30 11 16 1022.9 1022.9 0.0
12/02:30pm 13.2 9.0 8.1 71 2.5 E 20 32 11 17 1023.0 1023.0 0.0
12/02:00pm 13.5 8.5 7.9 69 2.8 E 24 32 13 17 1023.3 1023.3 0.0
12/01:30pm 14.2 8.8 7.9 66 3.1 E 26 37 14 20 1023.8 1023.8 0.0
12/01:00pm 14.1 7.8 7.6 65 3.2 E 30 39 16 21 1024.3 1024.3 0.0
12/12:30pm 13.8 7.0 7.1 64 3.3 E 32 41 17 22 1024.9 1024.9 0.0
12/12:00pm 13.9 7.6 7.4 65 3.2 E 30 39 16 21 1025.6 1025.6 0.0
12/11:30am 13.8 7.0 7.6 66 3.0 E 33 44 18 24 1026.2 1026.2 0.0
12/11:00am 13.0 6.4 5.9 62 3.3 E 30 43 16 23 1026.8 1026.8 0.0
12/10:30am 13.4 6.6 6.7 64 3.2 E 32 43 17 23 1027.1 1027.1 0.0
12/10:00am 13.3 6.7 5.9 61 3.5 E 30 41 16 22 1027.6 1027.6 0.0
12/09:30am 12.8 7.2 5.5 61 3.4 ESE 24 35 13 19 1027.9 1027.9 0.0
12/09:00am 12.2 7.3 4.9 61 3.3 ESE 20 28 11 15 1028.0 1028.0 0.0
12/08:30am 10.8 5.6 3.8 62 3.1 ESE 20 28 11 15 1028.0 1028.0 0.0
12/08:00am 9.9 5.7 3.6 65 2.7 SE 15 20 8 11 1028.0 1028.0 0.0
12/07:30am 9.4 6.0 3.8 68 2.4 SSE 11 15 6 8 1028.2 1028.2 0.0
12/07:00am 8.6 5.0 3.2 69 2.3 ESE 11 15 6 8 1028.1 1028.1 0.0
12/06:30am 7.3 5.6 4.1 80 1.4 W 2 7 1 4 1028.0 1028.0 0.0
12/06:00am 6.6 3.9 3.9 83 1.1 W 7 9 4 5 1028.2 1028.2 0.0
12/05:30am 7.1 4.4 3.7 79 1.4 NW 7 9 4 5 1028.4 1028.4 0.0
12/05:00am 6.9 3.9 3.9 81 1.3 W 9 11 5 6 1028.4 1028.4 0.0
12/04:30am 6.7 3.6 3.7 81 1.3 W 9 11 5 6 1028.6 1028.6 0.0
12/04:00am 6.6 3.0 3.0 78 1.5 NW 11 15 6 8 1028.5 1028.5 0.0
12/03:30am 7.0 4.3 2.7 74 1.8 SSW 6 9 3 5 1028.6 1028.6 0.0
12/03:00am 6.9 4.1 1.8 70 2.1 SSW 6 11 3 6 1028.9 1028.9 0.0
12/02:30am 7.1 4.4 2.6 73 1.9 WSW 6 9 3 5 1029.2 1029.2 0.0
12/02:00am 7.0 3.7 2.3 72 1.9 SW 9 13 5 7 1029.5 1029.5 0.0
12/01:30am 6.6 3.5 1.5 70 2.0 WSW 7 9 4 5 1029.5 1029.5 0.0
12/01:00am 7.5 2.9 1.6 66 2.4 S 15 20 8 11 1029.7 1029.7 0.0
12/12:30am 7.1 2.5 1.4 67 2.3 SSE 15 20 8 11 1029.7 1029.7 0.0
12/12:00am 7.9 3.3 1.7 65 2.5 SSE 15 19 8 10 1029.9 1029.9 0.0
 
Date/Time
EST
Temp
°C
App
Temp
°C
Dew
Point
°C
Rel
Hum
%
Delta-T
°C
Wind Press
QNH
hPa
Press
MSL
hPa
Rain since
9am
mm
Dir  Spd
km/h
Gust
km/h
Spd
kts
Gust
kts
11/11:30pm 7.9 3.3 1.5 64 2.6 SSE 15 19 8 10 1029.9 1029.9 0.0
11/11:00pm 8.8 5.1 2.2 63 2.7 SE 11 19 6 10 1030.2 1030.2 0.0
11/10:30pm 7.6 4.8 3.1 73 1.9 SSW 7 11 4 6 1030.2 1030.2 0.0
11/10:00pm 7.6 5.2 2.1 68 2.2 SE 4 6 2 3 1030.2 1030.2 0.0
11/09:30pm 7.0 3.5 1.5 68 2.2 SE 9 9 5 5 1030.1 1030.1 0.0
11/09:00pm 8.5 4.3 1.4 61 2.9 SE 13 19 7 10 1030.1 1030.1 0.0
11/08:30pm 9.3 5.1 1.9 60 3.1 SE 13 19 7 10 1029.8 1029.8 0.0
11/08:00pm 9.6 4.6 1.5 57 3.3 SE 17 20 9 11 1029.5 1029.5 0.0
11/07:30pm 9.8 4.9 1.7 57 3.4 ESE 17 24 9 13 1028.8 1028.8 0.0
11/07:00pm 10.2 5.2 1.3 54 3.7 ESE 17 24 9 13 1028.6 1028.6 0.0
11/06:30pm 10.3 5.0 1.7 55 3.6 ESE 19 22 10 12 1028.1 1028.1 0.0
11/06:00pm 10.4 5.1 1.8 55 3.6 ESE 19 26 10 14 1027.7 1027.7 0.0
11/05:30pm 10.8 5.5 3.1 59 3.3 ESE 20 30 11 16 1027.2 1027.2 0.0
11/05:00pm 11.1 5.7 2.4 55 3.7 E 20 28 11 15 1026.8 1026.8 0.0
11/04:30pm 11.3 5.6 2.9 56 3.7 E 22 32 12 17 1026.6 1026.6 0.0
11/04:00pm 11.6 6.4 3.4 57 3.6 E 20 30 11 16 1026.3 1026.3 0.0
11/03:30pm 11.9 7.4 4.2 59 3.5 E 17 26 9 14 1025.8 1025.8 0.0
11/03:00pm 12.5 8.4 4.5 58 3.6 ENE 15 22 8 12 1025.4 1025.4 0.0
11/02:30pm 12.4 8.2 3.9 56 3.8 E 15 22 8 12 1025.1 1025.1 0.0
11/02:00pm 12.5 7.9 3.7 55 3.9 E 17 22 9 12 1024.9 1024.9 0.0
11/01:30pm 12.5 7.9 3.5 54 4.0 ENE 17 22 9 12 1024.7 1024.7 0.0
11/01:00pm 12.1 7.7 2.8 53 4.0 ENE 15 20 8 11 1024.6 1024.6 0.0
11/12:30pm 12.0 7.9 2.2 51 4.2 ENE 13 19 7 10 1024.5 1024.5 0.0
11/12:00pm 12.6 8.8 3.8 55 3.9 E 13 20 7 11 1024.4 1024.4 0.0
11/11:30am 11.7 7.9 1.9 51 4.2 E 11 15 6 8 1024.5 1024.5 0.0
11/11:00am 11.1 8.2 2.4 55 3.7 ESE 7 13 4 7 1024.5 1024.5 0.0

Other formats

Comma delimited format used in spreadsheet applications
http://www.bom.gov.au/fwo/IDT60801/IDT60801.95957.axf

JavaScript Object Notation format (JSON) in row-major order
http://www.bom.gov.au/fwo/IDT60801/IDT60801.95957.json

Data quality

Most of these data are generated automatically and are frequently updated. Quality checks on data are not normally performed. It is possible for incorrect values to appear. Refer to information at About Latest Weather Observations and please check the disclaimer before using these data.